sensor_id;sensor_type;location;lat;lon;timestamp;pressure;altitude;pressure_sealevel;temperature;humidity
250;BME280;109;19.806;-70.704;2023-04-01T00:01:07;101840.03;;;24.49;61.87
250;BME280;109;19.806;-70.704;2023-04-01T00:03:34;101835.34;;;24.55;61.27
250;BME280;109;19.806;-70.704;2023-04-01T00:06:02;101836.81;;;24.39;61.92
250;BME280;109;19.806;-70.704;2023-04-01T00:08:29;101829.13;;;24.30;61.94
250;BME280;109;19.806;-70.704;2023-04-01T00:10:55;101833.59;;;24.54;61.70
250;BME280;109;19.806;-70.704;2023-04-01T00:13:24;101833.34;;;24.60;61.81
250;BME280;109;19.806;-70.704;2023-04-01T00:15:51;101835.78;;;24.43;61.64
250;BME280;109;19.806;-70.704;2023-04-01T00:18:18;101833.75;;;24.50;61.48
250;BME280;109;19.806;-70.704;2023-04-01T00:20:46;101835.59;;;24.48;61.73
250;BME280;109;19.806;-70.704;2023-04-01T00:23:13;101848.72;;;24.55;61.48
250;BME280;109;19.806;-70.704;2023-04-01T00:25:40;101843.91;;;24.65;61.38
250;BME280;109;19.806;-70.704;2023-04-01T00:28:07;101856.47;;;24.63;60.74
250;BME280;109;19.806;-70.704;2023-04-01T00:30:35;101857.44;;;24.60;60.92
250;BME280;109;19.806;-70.704;2023-04-01T00:33:01;101857.34;;;24.63;60.75
250;BME280;109;19.806;-70.704;2023-04-01T00:35:28;101859.97;;;24.65;61.00
250;BME280;109;19.806;-70.704;2023-04-01T00:37:55;101856.59;;;24.85;60.77
250;BME280;109;19.806;-70.704;2023-04-01T00:42:56;101868.78;;;24.68;60.84
250;BME280;109;19.806;-70.704;2023-04-01T00:45:32;101871.75;;;24.59;60.91
250;BME280;109;19.806;-70.704;2023-04-01T00:48:04;101872.75;;;24.57;61.01
250;BME280;109;19.806;-70.704;2023-04-01T00:50:32;101874.88;;;24.72;60.68
250;BME280;109;19.806;-70.704;2023-04-01T00:53:01;101882.09;;;24.70;60.62
250;BME280;109;19.806;-70.704;2023-04-01T00:55:39;101887.56;;;24.42;60.94
250;BME280;109;19.806;-70.704;2023-04-01T00:58:15;101884.50;;;24.53;60.80
250;BME280;109;19.806;-70.704;2023-04-01T01:00:51;101883.91;;;24.45;60.80
250;BME280;109;19.806;-70.704;2023-04-01T01:03:18;101891.06;;;24.44;60.80
250;BME280;109;19.806;-70.704;2023-04-01T01:12:11;101891.16;;;24.41;60.75
250;BME280;109;19.806;-70.704;2023-04-01T01:15:00;101895.69;;;24.39;60.91
250;BME280;109;19.806;-70.704;2023-04-01T01:23:36;101912.25;;;24.50;60.95
250;BME280;109;19.806;-70.704;2023-04-01T01:35:33;101935.34;;;24.53;60.08
250;BME280;109;19.806;-70.704;2023-04-01T01:38:17;101938.22;;;24.47;59.87
250;BME280;109;19.806;-70.704;2023-04-01T01:41:01;101946.19;;;24.48;59.68
250;BME280;109;19.806;-70.704;2023-04-01T01:43:42;101951.97;;;24.62;59.21
250;BME280;109;19.806;-70.704;2023-04-01T01:46:19;101963.81;;;24.55;58.99
250;BME280;109;19.806;-70.704;2023-04-01T01:48:55;101960.50;;;24.47;59.33
250;BME280;109;19.806;-70.704;2023-04-01T01:51:23;101964.88;;;24.50;59.21
250;BME280;109;19.806;-70.704;2023-04-01T01:53:58;101954.03;;;24.54;59.21
250;BME280;109;19.806;-70.704;2023-04-01T01:56:28;101953.31;;;24.49;59.23
250;BME280;109;19.806;-70.704;2023-04-01T01:59:08;101946.94;;;24.53;59.05
250;BME280;109;19.806;-70.704;2023-04-01T02:01:51;101949.56;;;24.55;58.95
250;BME280;109;19.806;-70.704;2023-04-01T02:04:26;101945.66;;;24.38;59.02
250;BME280;109;19.806;-70.704;2023-04-01T02:07:00;101947.81;;;24.27;59.02
250;BME280;109;19.806;-70.704;2023-04-01T02:09:35;101952.72;;;24.41;58.87
250;BME280;109;19.806;-70.704;2023-04-01T02:12:07;101961.56;;;24.43;58.59
250;BME280;109;19.806;-70.704;2023-04-01T02:15:17;101963.56;;;24.36;58.53
250;BME280;109;19.806;-70.704;2023-04-01T02:17:52;101966.50;;;24.29;59.03
250;BME280;109;19.806;-70.704;2023-04-01T02:20:22;101979.38;;;24.44;58.70
250;BME280;109;19.806;-70.704;2023-04-01T02:22:57;101977.84;;;24.35;58.68
250;BME280;109;19.806;-70.704;2023-04-01T02:25:37;101986.56;;;24.42;59.04
250;BME280;109;19.806;-70.704;2023-04-01T02:28:07;101983.03;;;24.42;58.83
250;BME280;109;19.806;-70.704;2023-04-01T02:30:41;101986.53;;;24.44;58.94
250;BME280;109;19.806;-70.704;2023-04-01T02:33:09;101990.34;;;24.35;58.83
250;BME280;109;19.806;-70.704;2023-04-01T02:35:43;101991.13;;;24.38;58.98
250;BME280;109;19.806;-70.704;2023-04-01T02:38:23;101985.97;;;24.32;59.08
250;BME280;109;19.806;-70.704;2023-04-01T02:40:57;101994.47;;;24.45;58.88
250;BME280;109;19.806;-70.704;2023-04-01T02:43:31;101997.16;;;24.45;58.84
250;BME280;109;19.806;-70.704;2023-04-01T02:45:58;102001.38;;;24.52;58.79
250;BME280;109;19.806;-70.704;2023-04-01T02:48:31;102002.34;;;24.50;58.70
250;BME280;109;19.806;-70.704;2023-04-01T02:50:57;101998.81;;;24.49;59.01
250;BME280;109;19.806;-70.704;2023-04-01T02:53:38;102000.81;;;24.43;59.07
250;BME280;109;19.806;-70.704;2023-04-01T02:56:12;101986.66;;;24.39;58.97
250;BME280;109;19.806;-70.704;2023-04-01T02:58:38;101997.38;;;24.39;59.27
250;BME280;109;19.806;-70.704;2023-04-01T03:01:11;101986.31;;;24.22;59.21
250;BME280;109;19.806;-70.704;2023-04-01T03:03:37;101988.81;;;24.28;59.08
250;BME280;109;19.806;-70.704;2023-04-01T03:06:13;101997.78;;;24.27;59.08
250;BME280;109;19.806;-70.704;2023-04-01T03:08:41;101995.72;;;24.35;58.98
250;BME280;109;19.806;-70.704;2023-04-01T03:11:14;102003.28;;;24.49;58.75
250;BME280;109;19.806;-70.704;2023-04-01T03:13:41;102011.66;;;24.38;58.73
250;BME280;109;19.806;-70.704;2023-04-01T03:16:14;102006.47;;;24.33;59.19
250;BME280;109;19.806;-70.704;2023-04-01T03:18:41;102001.19;;;24.32;59.22
250;BME280;109;19.806;-70.704;2023-04-01T03:21:19;102007.19;;;24.38;59.06
250;BME280;109;19.806;-70.704;2023-04-01T03:23:53;102006.31;;;24.38;58.94
250;BME280;109;19.806;-70.704;2023-04-01T03:26:19;102001.66;;;24.45;59.09
250;BME280;109;19.806;-70.704;2023-04-01T03:28:54;102002.72;;;24.39;58.66
250;BME280;109;19.806;-70.704;2023-04-01T03:31:22;102005.72;;;24.30;59.15
250;BME280;109;19.806;-70.704;2023-04-01T03:33:57;102005.41;;;24.39;59.05
250;BME280;109;19.806;-70.704;2023-04-01T03:36:43;101999.44;;;24.31;59.06
250;BME280;109;19.806;-70.704;2023-04-01T03:39:17;101998.34;;;24.36;59.06
250;BME280;109;19.806;-70.704;2023-04-01T03:41:46;101992.19;;;24.33;59.11
250;BME280;109;19.806;-70.704;2023-04-01T03:44:20;101994.16;;;24.28;59.66
250;BME280;109;19.806;-70.704;2023-04-01T03:46:50;101994.06;;;24.31;60.44
250;BME280;109;19.806;-70.704;2023-04-01T03:49:23;101990.53;;;24.30;60.37
250;BME280;109;19.806;-70.704;2023-04-01T03:51:57;101991.31;;;24.32;60.53
250;BME280;109;19.806;-70.704;2023-04-01T03:54:31;101990.75;;;24.23;60.18
250;BME280;109;19.806;-70.704;2023-04-01T03:56:58;101996.69;;;24.04;60.38
250;BME280;109;19.806;-70.704;2023-04-01T03:59:33;101994.00;;;24.04;60.54
250;BME280;109;19.806;-70.704;2023-04-01T04:02:01;102002.06;;;24.03;60.35
250;BME280;109;19.806;-70.704;2023-04-01T04:04:35;101983.34;;;24.03;60.48
250;BME280;109;19.806;-70.704;2023-04-01T04:07:02;101984.00;;;24.10;60.07
250;BME280;109;19.806;-70.704;2023-04-01T04:09:56;101983.97;;;24.11;60.04
250;BME280;109;19.806;-70.704;2023-04-01T04:12:29;101992.78;;;24.15;59.92
250;BME280;109;19.806;-70.704;2023-04-01T04:14:55;101994.00;;;24.04;59.99
250;BME280;109;19.806;-70.704;2023-04-01T04:17:29;101984.75;;;24.15;59.79
250;BME280;109;19.806;-70.704;2023-04-01T04:19:55;101990.06;;;24.18;59.99
250;BME280;109;19.806;-70.704;2023-04-01T04:22:29;101983.69;;;23.92;62.02
250;BME280;109;19.806;-70.704;2023-04-01T04:24:55;101987.91;;;23.70;62.83
250;BME280;109;19.806;-70.704;2023-04-01T04:27:29;101985.56;;;23.59;63.14
250;BME280;109;19.806;-70.704;2023-04-01T04:30:06;101977.94;;;23.46;63.80
250;BME280;109;19.806;-70.704;2023-04-01T04:32:39;101963.53;;;23.51;64.01
250;BME280;109;19.806;-70.704;2023-04-01T04:35:25;101962.72;;;23.48;64.59
250;BME280;109;19.806;-70.704;2023-04-01T04:37:59;101955.50;;;23.51;64.81
250;BME280;109;19.806;-70.704;2023-04-01T04:40:36;101962.97;;;23.40;64.94
250;BME280;109;19.806;-70.704;2023-04-01T04:43:12;101956.78;;;23.38;64.56
250;BME280;109;19.806;-70.704;2023-04-01T04:45:39;101949.09;;;23.27;64.72
250;BME280;109;19.806;-70.704;2023-04-01T04:48:15;101950.72;;;23.31;64.85
250;BME280;109;19.806;-70.704;2023-04-01T04:50:53;101948.06;;;23.31;64.88
250;BME280;109;19.806;-70.704;2023-04-01T04:53:22;101940.03;;;23.31;65.01
250;BME280;109;19.806;-70.704;2023-04-01T04:55:56;101938.47;;;23.24;64.38
250;BME280;109;19.806;-70.704;2023-04-01T04:58:48;101937.28;;;23.34;64.44
250;BME280;109;19.806;-70.704;2023-04-01T05:01:33;101946.88;;;23.42;64.58
250;BME280;109;19.806;-70.704;2023-04-01T05:04:06;101943.47;;;23.37;64.56
250;BME280;109;19.806;-70.704;2023-04-01T05:06:32;101943.59;;;23.32;63.96
250;BME280;109;19.806;-70.704;2023-04-01T05:09:05;101930.94;;;23.39;64.07
250;BME280;109;19.806;-70.704;2023-04-01T05:11:31;101933.50;;;23.42;64.03
250;BME280;109;19.806;-70.704;2023-04-01T05:14:04;101932.41;;;23.49;64.03
250;BME280;109;19.806;-70.704;2023-04-01T05:16:38;101925.06;;;23.55;63.75
250;BME280;109;19.806;-70.704;2023-04-01T05:19:12;101917.31;;;23.48;63.66
250;BME280;109;19.806;-70.704;2023-04-01T05:21:38;101914.72;;;23.45;63.24
250;BME280;109;19.806;-70.704;2023-04-01T05:24:11;101908.38;;;23.49;63.56
250;BME280;109;19.806;-70.704;2023-04-01T05:26:38;101910.03;;;23.53;63.49
250;BME280;109;19.806;-70.704;2023-04-01T05:29:12;101904.56;;;23.56;63.45
250;BME280;109;19.806;-70.704;2023-04-01T05:31:39;101908.97;;;23.58;63.46
250;BME280;109;19.806;-70.704;2023-04-01T05:34:13;101914.53;;;23.51;63.39
250;BME280;109;19.806;-70.704;2023-04-01T05:36:59;101907.44;;;23.50;63.49
250;BME280;109;19.806;-70.704;2023-04-01T05:39:39;101902.66;;;23.31;63.72
250;BME280;109;19.806;-70.704;2023-04-01T05:42:12;101896.47;;;23.29;63.68
250;BME280;109;19.806;-70.704;2023-04-01T05:44:40;101890.25;;;23.29;63.62
250;BME280;109;19.806;-70.704;2023-04-01T05:47:33;101892.25;;;23.22;63.38
250;BME280;109;19.806;-70.704;2023-04-01T05:50:06;101884.09;;;23.27;63.17
250;BME280;109;19.806;-70.704;2023-04-01T05:52:32;101883.78;;;23.38;63.14
250;BME280;109;19.806;-70.704;2023-04-01T05:55:06;101878.47;;;23.36;63.15
250;BME280;109;19.806;-70.704;2023-04-01T05:57:33;101881.38;;;23.58;62.65
250;BME280;109;19.806;-70.704;2023-04-01T06:00:06;101877.97;;;23.53;62.29
250;BME280;109;19.806;-70.704;2023-04-01T06:02:38;101868.94;;;23.55;62.18
250;BME280;109;19.806;-70.704;2023-04-01T06:05:41;101860.31;;;23.47;61.77
250;BME280;109;19.806;-70.704;2023-04-01T06:08:24;101850.88;;;23.65;61.97
250;BME280;109;19.806;-70.704;2023-04-01T06:11:01;101845.69;;;23.60;61.82
250;BME280;109;19.806;-70.704;2023-04-01T06:29:00;101823.28;;;23.35;62.07
250;BME280;109;19.806;-70.704;2023-04-01T06:31:46;101810.91;;;23.32;62.17
250;BME280;109;19.806;-70.704;2023-04-01T06:47:33;101801.91;;;23.35;61.66
250;BME280;109;19.806;-70.704;2023-04-01T06:57:30;101790.91;;;23.16;61.47
250;BME280;109;19.806;-70.704;2023-04-01T07:00:13;101785.28;;;23.27;61.66
250;BME280;109;19.806;-70.704;2023-04-01T07:03:06;101786.03;;;23.30;61.51
250;BME280;109;19.806;-70.704;2023-04-01T07:05:43;101787.03;;;23.28;61.10
250;BME280;109;19.806;-70.704;2023-04-01T07:08:15;101789.31;;;23.40;60.98
250;BME280;109;19.806;-70.704;2023-04-01T07:11:04;101775.94;;;23.40;60.99
250;BME280;109;19.806;-70.704;2023-04-01T07:14:28;101775.06;;;23.40;61.06
250;BME280;109;19.806;-70.704;2023-04-01T07:17:08;101769.88;;;23.35;60.98
250;BME280;109;19.806;-70.704;2023-04-01T07:20:02;101765.31;;;23.39;60.65
250;BME280;109;19.806;-70.704;2023-04-01T07:22:40;101770.34;;;23.48;60.74
250;BME280;109;19.806;-70.704;2023-04-01T07:25:55;101771.31;;;23.45;60.91
250;BME280;109;19.806;-70.704;2023-04-01T07:28:32;101766.75;;;23.49;60.73
250;BME280;109;19.806;-70.704;2023-04-01T08:01:23;101762.91;;;23.29;60.91
250;BME280;109;19.806;-70.704;2023-04-01T08:04:18;101762.22;;;23.51;60.59
250;BME280;109;19.806;-70.704;2023-04-01T08:07:10;101775.16;;;23.37;60.30
250;BME280;109;19.806;-70.704;2023-04-01T08:25:05;101788.66;;;23.32;62.04
250;BME280;109;19.806;-70.704;2023-04-01T08:28:10;101787.44;;;23.14;62.50
250;BME280;109;19.806;-70.704;2023-04-01T08:33:34;101786.28;;;23.23;62.66
250;BME280;109;19.806;-70.704;2023-04-01T08:36:28;101779.94;;;23.27;62.43
250;BME280;109;19.806;-70.704;2023-04-01T08:39:33;101782.81;;;23.19;62.51
250;BME280;109;19.806;-70.704;2023-04-01T08:45:34;101788.84;;;23.26;62.19
250;BME280;109;19.806;-70.704;2023-04-01T08:51:53;101800.47;;;23.25;61.89
250;BME280;109;19.806;-70.704;2023-04-01T09:00:53;101799.63;;;23.23;61.37
250;BME280;109;19.806;-70.704;2023-04-01T09:04:13;101809.41;;;23.24;61.36
250;BME280;109;19.806;-70.704;2023-04-01T09:10:16;101810.44;;;23.18;61.73
250;BME280;109;19.806;-70.704;2023-04-01T09:17:13;101806.91;;;23.18;61.88
250;BME280;109;19.806;-70.704;2023-04-01T09:26:30;101829.84;;;22.94;61.92
250;BME280;109;19.806;-70.704;2023-04-01T09:29:18;101828.16;;;22.90;61.72
250;BME280;109;19.806;-70.704;2023-04-01T09:32:30;101828.16;;;22.90;61.94
250;BME280;109;19.806;-70.704;2023-04-01T09:35:39;101821.50;;;22.75;61.96
250;BME280;109;19.806;-70.704;2023-04-01T09:38:23;101823.06;;;22.82;61.93
250;BME280;109;19.806;-70.704;2023-04-01T09:41:36;101830.19;;;22.82;61.45
250;BME280;109;19.806;-70.704;2023-04-01T09:50:35;101839.28;;;22.76;61.52
250;BME280;109;19.806;-70.704;2023-04-01T10:11:26;101845.28;;;22.83;61.65
250;BME280;109;19.806;-70.704;2023-04-01T10:14:23;101847.81;;;22.89;61.23
250;BME280;109;19.806;-70.704;2023-04-01T10:17:14;101846.94;;;22.88;61.47
250;BME280;109;19.806;-70.704;2023-04-01T10:20:19;101859.41;;;22.88;61.40
250;BME280;109;19.806;-70.704;2023-04-01T10:26:54;101878.28;;;22.80;61.16
250;BME280;109;19.806;-70.704;2023-04-01T10:30:13;101874.75;;;22.80;61.33
250;BME280;109;19.806;-70.704;2023-04-01T10:48:47;101892.00;;;23.01;60.99
250;BME280;109;19.806;-70.704;2023-04-01T11:08:32;101895.84;;;23.21;59.99
250;BME280;109;19.806;-70.704;2023-04-01T11:20:20;101919.09;;;23.47;59.29
250;BME280;109;19.806;-70.704;2023-04-01T11:25:35;101917.19;;;23.80;58.90
250;BME280;109;19.806;-70.704;2023-04-01T11:45:49;101928.78;;;24.61;56.50
250;BME280;109;19.806;-70.704;2023-04-01T12:04:53;101950.84;;;25.19;54.78
250;BME280;109;19.806;-70.704;2023-04-01T12:10:21;101947.03;;;25.50;53.62
250;BME280;109;19.806;-70.704;2023-04-01T12:20:43;101954.25;;;25.94;53.10
250;BME280;109;19.806;-70.704;2023-04-01T12:37:13;101952.34;;;26.62;52.16
250;BME280;109;19.806;-70.704;2023-04-01T12:45:38;101958.31;;;26.68;51.37
250;BME280;109;19.806;-70.704;2023-04-01T12:48:31;101964.38;;;26.73;51.09
250;BME280;109;19.806;-70.704;2023-04-01T13:03:14;101998.44;;;26.93;50.88
250;BME280;109;19.806;-70.704;2023-04-01T13:08:53;102010.28;;;26.67;50.68
250;BME280;109;19.806;-70.704;2023-04-01T13:17:51;102000.63;;;26.83;50.46
250;BME280;109;19.806;-70.704;2023-04-01T13:23:29;101996.00;;;26.87;49.96
250;BME280;109;19.806;-70.704;2023-04-01T13:26:07;102006.28;;;26.77;50.58
250;BME280;109;19.806;-70.704;2023-04-01T13:28:43;102014.91;;;27.06;50.70
250;BME280;109;19.806;-70.704;2023-04-01T13:31:51;102010.63;;;27.02;49.76
250;BME280;109;19.806;-70.704;2023-04-01T13:42:35;102018.69;;;26.80;50.58
250;BME280;109;19.806;-70.704;2023-04-01T14:05:01;102015.00;;;27.04;49.01
250;BME280;109;19.806;-70.704;2023-04-01T14:08:03;102013.41;;;27.19;49.29
250;BME280;109;19.806;-70.704;2023-04-01T14:26:22;102008.28;;;27.33;49.01
250;BME280;109;19.806;-70.704;2023-04-01T14:40:55;102011.56;;;27.60;50.58
250;BME280;109;19.806;-70.704;2023-04-01T14:43:47;102014.34;;;27.77;50.62
250;BME280;109;19.806;-70.704;2023-04-01T14:49:30;102028.00;;;27.73;49.56
250;BME280;109;19.806;-70.704;2023-04-01T14:52:14;102013.38;;;27.60;48.87
250;BME280;109;19.806;-70.704;2023-04-01T14:54:46;102014.06;;;27.65;49.04
250;BME280;109;19.806;-70.704;2023-04-01T14:57:31;102008.88;;;27.60;50.18
250;BME280;109;19.806;-70.704;2023-04-01T15:02:51;102006.50;;;27.54;50.49
250;BME280;109;19.806;-70.704;2023-04-01T15:12:26;101994.47;;;27.42;50.77
250;BME280;109;19.806;-70.704;2023-04-01T15:23:13;101989.13;;;27.02;52.32
250;BME280;109;19.806;-70.704;2023-04-01T15:45:36;101964.19;;;26.98;52.85
250;BME280;109;19.806;-70.704;2023-04-01T15:59:47;101945.84;;;26.88;53.08
250;BME280;109;19.806;-70.704;2023-04-01T16:02:21;101942.03;;;26.93;53.13
250;BME280;109;19.806;-70.704;2023-04-01T16:10:38;101930.09;;;27.00;52.55
250;BME280;109;19.806;-70.704;2023-04-01T16:18:40;101931.41;;;27.10;54.19
250;BME280;109;19.806;-70.704;2023-04-01T16:27:36;101905.53;;;27.08;54.30
250;BME280;109;19.806;-70.704;2023-04-01T16:36:36;101891.47;;;27.03;54.12
250;BME280;109;19.806;-70.704;2023-04-01T16:42:24;101882.25;;;26.88;55.34
250;BME280;109;19.806;-70.704;2023-04-01T16:48:35;101880.84;;;27.00;53.83
250;BME280;109;19.806;-70.704;2023-04-01T16:50:48;101874.47;;;27.02;53.38
250;BME280;109;19.806;-70.704;2023-04-01T16:53:35;101870.22;;;26.97;53.57
250;BME280;109;19.806;-70.704;2023-04-01T16:56:20;101865.25;;;26.88;54.66
250;BME280;109;19.806;-70.704;2023-04-01T16:59:13;101860.38;;;26.77;54.76
250;BME280;109;19.806;-70.704;2023-04-01T17:01:54;101857.75;;;26.96;55.18
250;BME280;109;19.806;-70.704;2023-04-01T17:12:51;101835.34;;;26.76;56.37
250;BME280;109;19.806;-70.704;2023-04-01T17:15:46;101829.88;;;26.78;55.65
250;BME280;109;19.806;-70.704;2023-04-01T17:18:40;101830.03;;;26.75;53.88
250;BME280;109;19.806;-70.704;2023-04-01T17:33:14;101785.53;;;26.88;54.23
250;BME280;109;19.806;-70.704;2023-04-01T17:36:08;101785.25;;;26.75;54.05
250;BME280;109;19.806;-70.704;2023-04-01T17:44:49;101771.84;;;26.94;55.34
250;BME280;109;19.806;-70.704;2023-04-01T17:50:23;101758.06;;;26.81;54.93
250;BME280;109;19.806;-70.704;2023-04-01T18:01:36;101740.16;;;26.82;52.76
250;BME280;109;19.806;-70.704;2023-04-01T18:04:27;101738.88;;;26.91;54.45
250;BME280;109;19.806;-70.704;2023-04-01T18:07:22;101731.75;;;26.90;54.27
250;BME280;109;19.806;-70.704;2023-04-01T18:15:46;101728.41;;;26.66;55.51
250;BME280;109;19.806;-70.704;2023-04-01T18:24:05;101711.56;;;26.62;54.76
250;BME280;109;19.806;-70.704;2023-04-01T18:26:40;101704.66;;;26.75;55.37
250;BME280;109;19.806;-70.704;2023-04-01T18:37:32;101686.28;;;26.66;55.25
250;BME280;109;19.806;-70.704;2023-04-01T18:45:33;101677.44;;;26.45;54.80
250;BME280;109;19.806;-70.704;2023-04-01T18:50:55;101669.19;;;26.50;55.89
250;BME280;109;19.806;-70.704;2023-04-01T18:55:57;101670.00;;;26.32;53.92
250;BME280;109;19.806;-70.704;2023-04-01T19:01:23;101655.66;;;26.70;55.60
250;BME280;109;19.806;-70.704;2023-04-01T19:09:26;101646.31;;;26.60;53.65
250;BME280;109;19.806;-70.704;2023-04-01T19:15:02;101633.91;;;26.58;54.80
250;BME280;109;19.806;-70.704;2023-04-01T19:17:44;101627.66;;;26.57;54.17
250;BME280;109;19.806;-70.704;2023-04-01T19:20:37;101628.25;;;26.64;54.58
250;BME280;109;19.806;-70.704;2023-04-01T19:23:37;101623.59;;;26.67;54.72
250;BME280;109;19.806;-70.704;2023-04-01T19:26:33;101625.19;;;26.71;54.28
250;BME280;109;19.806;-70.704;2023-04-01T19:29:19;101628.19;;;26.65;54.75
250;BME280;109;19.806;-70.704;2023-04-01T19:34:56;101628.09;;;26.48;55.17
250;BME280;109;19.806;-70.704;2023-04-01T19:37:39;101610.75;;;26.74;56.01
250;BME280;109;19.806;-70.704;2023-04-01T19:40:15;101616.97;;;26.37;54.99
250;BME280;109;19.806;-70.704;2023-04-01T19:43:13;101607.25;;;26.34;54.25
250;BME280;109;19.806;-70.704;2023-04-01T19:51:39;101613.34;;;26.38;56.29
250;BME280;109;19.806;-70.704;2023-04-01T19:54:26;101611.47;;;26.40;56.85
250;BME280;109;19.806;-70.704;2023-04-01T20:04:44;101591.06;;;26.17;56.42
250;BME280;109;19.806;-70.704;2023-04-01T20:07:37;101601.81;;;26.36;55.67
250;BME280;109;19.806;-70.704;2023-04-01T20:11:11;101594.03;;;26.30;55.97
250;BME280;109;19.806;-70.704;2023-04-01T20:13:53;101597.03;;;26.24;55.50
250;BME280;109;19.806;-70.704;2023-04-01T20:16:59;101595.78;;;26.31;55.60
250;BME280;109;19.806;-70.704;2023-04-01T20:19:51;101590.97;;;26.39;56.43
250;BME280;109;19.806;-70.704;2023-04-01T20:24:52;101588.06;;;26.43;55.98
250;BME280;109;19.806;-70.704;2023-04-01T20:27:24;101596.72;;;26.30;55.94
250;BME280;109;19.806;-70.704;2023-04-01T20:30:04;101597.03;;;26.24;57.12
250;BME280;109;19.806;-70.704;2023-04-01T20:41:28;101595.63;;;26.15;57.79
250;BME280;109;19.806;-70.704;2023-04-01T21:02:16;101600.06;;;25.57;56.58
250;BME280;109;19.806;-70.704;2023-04-01T21:10:33;101589.13;;;25.41;58.18
250;BME280;109;19.806;-70.704;2023-04-01T21:16:08;101586.56;;;25.38;58.80
250;BME280;109;19.806;-70.704;2023-04-01T21:29:50;101580.25;;;25.19;58.56
250;BME280;109;19.806;-70.704;2023-04-01T21:43:42;101576.13;;;24.90;59.33
250;BME280;109;19.806;-70.704;2023-04-01T21:46:24;101576.00;;;24.93;60.11
250;BME280;109;19.806;-70.704;2023-04-01T22:05:39;101590.94;;;24.77;60.69
250;BME280;109;19.806;-70.704;2023-04-01T22:11:16;101598.34;;;24.47;60.25
250;BME280;109;19.806;-70.704;2023-04-01T22:16:52;101598.25;;;24.50;60.98
250;BME280;109;19.806;-70.704;2023-04-01T22:24:35;101621.00;;;24.38;61.10
250;BME280;109;19.806;-70.704;2023-04-01T22:27:19;101620.13;;;24.37;60.95
250;BME280;109;19.806;-70.704;2023-04-01T22:35:45;101626.03;;;24.46;61.47
250;BME280;109;19.806;-70.704;2023-04-01T22:38:46;101631.94;;;24.55;61.34
250;BME280;109;19.806;-70.704;2023-04-01T22:41:39;101632.53;;;24.40;62.02
250;BME280;109;19.806;-70.704;2023-04-01T22:50:11;101641.53;;;24.37;61.74
250;BME280;109;19.806;-70.704;2023-04-01T22:52:42;101642.34;;;24.16;61.04
250;BME280;109;19.806;-70.704;2023-04-01T22:55:27;101638.50;;;24.23;61.12
250;BME280;109;19.806;-70.704;2023-04-01T23:00:34;101654.41;;;24.28;61.54
250;BME280;109;19.806;-70.704;2023-04-01T23:03:25;101663.72;;;24.18;60.98
250;BME280;109;19.806;-70.704;2023-04-01T23:06:00;101661.91;;;24.18;60.70
250;BME280;109;19.806;-70.704;2023-04-01T23:08:50;101664.78;;;24.35;61.01
250;BME280;109;19.806;-70.704;2023-04-01T23:20:17;101677.34;;;24.33;60.71
250;BME280;109;19.806;-70.704;2023-04-01T23:25:40;101684.66;;;24.53;61.82
250;BME280;109;19.806;-70.704;2023-04-01T23:36:13;101705.56;;;24.19;62.18
250;BME280;109;19.806;-70.704;2023-04-01T23:38:42;101715.09;;;24.26;61.86
250;BME280;109;19.806;-70.704;2023-04-01T23:41:30;101717.38;;;24.36;62.06
250;BME280;109;19.806;-70.704;2023-04-01T23:44:12;101725.25;;;24.64;61.89
250;BME280;109;19.806;-70.704;2023-04-01T23:46:40;101725.25;;;24.41;61.65
250;BME280;109;19.806;-70.704;2023-04-01T23:49:16;101720.34;;;24.29;61.63
250;BME280;109;19.806;-70.704;2023-04-01T23:51:58;101730.13;;;24.30;61.38
250;BME280;109;19.806;-70.704;2023-04-01T23:57:31;101753.03;;;24.37;62.11
